Time;durP1;ratioP1;P1;durP2;ratioP2;P2;SDS_P1;SDS_P2;PMS_P1;PMS_P2;Temp;Humidity;BMP_temperature;BMP_pressure;BME280_temperature;BME280_humidity;BME280_pressure;Samples;Min_cycle;Max_cycle;Signal;HPM_P1;HPM_P2
2022/05/08 00:01:41;;;;;;;8.77;7.32;;;;;;;21.12;43.34;102053.25;4976198;28;20092;-70
2022/05/08 00:04:08;;;;;;;10.32;7.78;;;;;;;21.10;43.41;102046.97;5021497;28;20049;-69
2022/05/08 00:06:35;;;;;;;9.93;7.75;;;;;;;21.10;43.57;102046.97;5063390;28;20376;-69
2022/05/08 00:09:01;;;;;;;10.73;8.48;;;;;;;21.06;43.49;102045.53;5051331;28;20543;-70
2022/05/08 00:11:28;;;;;;;10.70;8.20;;;;;;;21.04;43.71;102042.03;5059436;28;20055;-69
2022/05/08 00:13:55;;;;;;;12.75;8.50;;;;;;;21.04;43.21;102053.06;5051669;28;20529;-70
2022/05/08 00:16:22;;;;;;;9.77;7.80;;;;;;;21.02;43.22;102055.97;5059133;28;20152;-70
2022/05/08 00:18:49;;;;;;;11.98;8.35;;;;;;;21.00;43.23;102052.47;5050365;28;20494;-70
2022/05/08 00:21:16;;;;;;;11.38;8.82;;;;;;;20.97;43.21;102052.78;5070953;28;20055;-70
2022/05/08 00:23:43;;;;;;;11.98;8.80;;;;;;;20.95;43.74;102053.91;5061868;28;20053;-70
2022/05/08 00:26:09;;;;;;;11.23;8.63;;;;;;;20.92;43.43;102059.72;5066424;28;20060;-70
2022/05/08 00:28:38;;;;;;;11.63;9.35;;;;;;;20.89;43.56;102056.22;5059683;28;20049;-69
2022/05/08 00:31:09;;;;;;;10.80;8.63;;;;;;;20.90;44.07;102057.09;5060254;28;20135;-69
2022/05/08 00:33:38;;;;;;;10.90;8.60;;;;;;;20.84;44.00;102054.88;5054269;28;20056;-70
2022/05/08 00:36:05;;;;;;;12.23;8.57;;;;;;;20.84;43.67;102052.13;5069527;28;20052;-70
2022/05/08 00:38:31;;;;;;;11.88;8.95;;;;;;;20.83;44.09;102058.69;5057515;28;20048;-70
2022/05/08 00:40:58;;;;;;;11.00;8.48;;;;;;;20.82;43.81;102052.28;5076961;28;20053;-70
2022/05/08 00:43:38;;;;;;;11.70;8.35;;;;;;;20.84;44.86;102055.75;5057118;28;20045;-69
2022/05/08 00:46:10;;;;;;;11.80;8.52;;;;;;;20.83;44.74;102053.16;5063557;28;20048;-70
2022/05/08 00:48:38;;;;;;;12.13;8.68;;;;;;;20.77;44.25;102049.06;5053780;28;20478;-70
2022/05/08 00:51:08;;;;;;;10.68;8.57;;;;;;;20.78;44.30;102053.56;5058645;28;20129;-70
2022/05/08 00:53:36;;;;;;;11.20;8.55;;;;;;;20.77;44.14;102054.56;5053860;28;20110;-69
2022/05/08 00:56:05;;;;;;;10.63;8.15;;;;;;;20.75;44.25;102053.88;5056514;28;20482;-70
2022/05/08 00:58:34;;;;;;;11.07;8.35;;;;;;;20.73;44.25;102049.50;5073649;28;20048;-70
2022/05/08 01:01:01;;;;;;;10.80;7.88;;;;;;;20.68;43.88;102055.41;5087078;28;20053;-70
2022/05/08 01:03:28;;;;;;;10.60;7.55;;;;;;;20.66;43.81;102057.47;5065543;28;20048;-70
2022/05/08 01:05:56;;;;;;;10.40;7.07;;;;;;;20.65;43.76;102061.22;5054938;28;20121;-70
2022/05/08 01:08:23;;;;;;;8.80;6.47;;;;;;;20.63;43.41;102054.09;5064905;28;20429;-70
2022/05/08 01:10:51;;;;;;;10.25;6.38;;;;;;;20.59;43.86;102056.22;5080188;28;20052;-70
2022/05/08 01:13:19;;;;;;;8.00;6.18;;;;;;;20.57;43.65;102069.31;5063299;28;20555;-70
2022/05/08 01:15:47;;;;;;;8.05;5.88;;;;;;;20.55;43.83;102053.91;5059064;28;20078;-70
2022/05/08 01:18:16;;;;;;;9.00;6.03;;;;;;;20.50;43.25;102057.09;5052165;28;20415;-69
2022/05/08 01:20:44;;;;;;;7.60;5.32;;;;;;;20.46;43.57;102056.47;5082715;28;20113;-69
2022/05/08 01:23:11;;;;;;;7.07;5.00;;;;;;;20.40;43.08;102070.81;5067289;28;20488;-70
2022/05/08 01:25:52;;;;;;;7.57;4.95;;;;;;;20.38;43.40;102059.03;5061050;28;20491;-69
2022/05/08 01:28:21;;;;;;;6.97;5.30;;;;;;;20.32;43.38;102059.56;5062376;28;20476;-69
2022/05/08 01:30:49;;;;;;;7.63;5.28;;;;;;;20.30;42.70;102066.22;5062900;28;20534;-69
2022/05/08 01:33:16;;;;;;;7.63;5.50;;;;;;;20.24;42.84;102061.25;5073005;28;20053;-69
2022/05/08 01:35:44;;;;;;;8.02;5.55;;;;;;;20.21;42.83;102067.91;5053142;28;20144;-69
2022/05/08 01:38:13;;;;;;;8.00;5.25;;;;;;;20.21;43.00;102061.50;5057027;28;20053;-69
2022/05/08 01:40:41;;;;;;;7.57;5.38;;;;;;;20.16;42.85;102067.44;5073751;28;20099;-69
2022/05/08 01:43:07;;;;;;;10.75;5.53;;;;;;;20.13;42.79;102067.72;5054074;28;20056;-69
2022/05/08 01:45:34;;;;;;;7.22;5.10;;;;;;;20.10;42.67;102066.09;5059711;28;20143;-69
2022/05/08 01:50:51;;;;;;;7.05;4.80;;;;;;;20.07;42.86;102080.16;5070855;28;20049;-69
2022/05/08 01:53:19;;;;;;;7.97;4.95;;;;;;;20.05;42.99;102071.16;5053182;28;20050;-69
2022/05/08 01:55:54;;;;;;;5.93;3.80;;;;;;;20.05;42.97;102078.53;5077963;28;20052;-69
2022/05/08 01:58:22;;;;;;;7.05;4.00;;;;;;;20.03;43.16;102078.66;5084839;28;20068;-69
2022/05/08 02:00:49;;;;;;;7.40;3.53;;;;;;;20.02;42.79;102079.66;5059509;28;20048;-69
2022/05/08 02:03:18;;;;;;;4.80;3.20;;;;;;;20.04;42.40;102087.81;5051170;28;20077;-69
2022/05/08 02:05:45;;;;;;;6.47;3.70;;;;;;;20.01;42.33;102093.63;5079523;28;20044;-69
2022/05/08 02:08:12;;;;;;;5.82;3.10;;;;;;;19.99;42.48;102107.53;5063903;28;20052;-69
2022/05/08 02:10:39;;;;;;;4.45;2.95;;;;;;;19.98;41.95;102093.88;5080789;28;20044;-70
2022/05/08 02:13:09;;;;;;;4.30;3.05;;;;;;;19.95;42.25;102100.50;5069473;28;20052;-70
2022/05/08 02:15:37;;;;;;;5.55;3.10;;;;;;;19.93;42.35;102099.75;5060409;28;20075;-70
2022/05/08 02:18:08;;;;;;;5.93;3.58;;;;;;;19.92;42.08;102105.44;5058094;28;20563;-69
2022/05/08 02:20:39;;;;;;;6.28;3.35;;;;;;;19.86;42.21;102109.56;5081915;28;20079;-69
2022/05/08 02:23:06;;;;;;;6.38;3.22;;;;;;;19.85;41.78;102113.34;5061038;28;20461;-70
2022/05/08 02:25:33;;;;;;;5.30;3.50;;;;;;;19.82;42.02;102113.63;5082362;28;20044;-70
2022/05/08 02:28:00;;;;;;;5.85;3.70;;;;;;;19.78;41.96;102103.84;5060244;28;20056;-70
2022/05/08 02:30:27;;;;;;;5.95;3.38;;;;;;;19.75;41.69;102106.88;5060129;28;20045;-69
2022/05/08 02:32:53;;;;;;;5.50;3.50;;;;;;;19.73;41.83;102101.50;5067719;28;20094;-70
2022/05/08 02:35:21;;;;;;;6.03;3.30;;;;;;;19.70;42.21;102101.75;5055334;28;20452;-69
2022/05/08 02:37:50;;;;;;;6.13;3.33;;;;;;;19.69;42.05;102107.38;5074385;28;20716;-69
2022/05/08 02:40:18;;;;;;;5.63;3.20;;;;;;;19.64;42.32;102107.78;5054837;28;20155;-70
2022/05/08 02:42:45;;;;;;;6.38;3.47;;;;;;;19.61;41.82;102105.28;5051617;28;20048;-70
2022/05/08 02:45:12;;;;;;;5.57;3.65;;;;;;;19.59;42.24;102111.97;5055298;28;20040;-69
2022/05/08 02:47:39;;;;;;;5.28;3.45;;;;;;;19.56;42.33;102114.97;5056630;28;20456;-69
2022/05/08 02:50:09;;;;;;;6.95;3.75;;;;;;;19.53;41.66;102113.31;5053434;28;20052;-70
2022/05/08 02:52:38;;;;;;;7.25;3.90;;;;;;;19.51;41.83;102114.50;5067656;28;20506;-70
2022/05/08 03:00:38;;;;;;;5.45;3.80;;;;;;;19.40;42.14;102112.59;5069595;28;20543;-70
2022/05/08 03:03:06;;;;;;;5.20;3.75;;;;;;;19.38;42.04;102111.84;5059534;28;20317;-70
2022/05/08 03:05:33;;;;;;;6.57;4.03;;;;;;;19.36;42.21;102109.22;5059811;28;20225;-70
2022/05/08 03:08:00;;;;;;;7.28;4.05;;;;;;;19.35;41.78;102110.22;5052219;28;20048;-70
2022/05/08 03:10:28;;;;;;;6.30;3.95;;;;;;;19.33;41.88;102103.97;5051412;28;20078;-70
2022/05/08 03:12:54;;;;;;;7.70;4.68;;;;;;;19.29;41.82;102116.25;5082485;28;20509;-69
2022/05/08 03:15:22;;;;;;;7.78;4.70;;;;;;;19.26;41.60;102105.50;5061282;28;20033;-70
2022/05/08 03:17:48;;;;;;;7.25;4.45;;;;;;;19.23;41.29;102104.88;5064062;28;20040;-70
2022/05/08 03:20:15;;;;;;;8.40;4.97;;;;;;;19.18;41.72;102110.78;5067738;28;20044;-70
2022/05/08 03:22:42;;;;;;;6.55;4.68;;;;;;;19.13;41.83;102104.75;5082560;28;20576;-70
2022/05/08 03:25:08;;;;;;;7.72;4.90;;;;;;;19.08;41.54;102107.03;5061125;28;20487;-69
2022/05/08 03:27:35;;;;;;;6.97;4.70;;;;;;;19.04;41.56;102116.53;5082393;28;20048;-70
2022/05/08 03:30:02;;;;;;;6.93;5.13;;;;;;;19.00;42.00;102109.53;5084078;28;20049;-69
2022/05/08 03:32:31;;;;;;;6.38;4.63;;;;;;;18.95;42.06;102109.91;5053037;28;20052;-70
2022/05/08 03:34:58;;;;;;;7.07;5.20;;;;;;;18.91;41.48;102108.41;5053353;28;20048;-69
2022/05/08 03:37:25;;;;;;;8.18;4.97;;;;;;;18.87;42.19;102109.66;5051834;28;20079;-70
2022/05/08 03:39:51;;;;;;;7.32;5.25;;;;;;;18.85;41.91;102114.44;5065117;28;20242;-69
2022/05/08 03:42:18;;;;;;;7.20;4.97;;;;;;;18.83;42.29;102116.44;5053547;28;20378;-69
2022/05/08 03:44:45;;;;;;;7.28;4.68;;;;;;;18.82;42.16;102119.28;5057692;28;20110;-69
2022/05/08 03:47:12;;;;;;;6.80;4.72;;;;;;;18.81;42.11;102114.78;5074864;28;20525;-69
2022/05/08 03:49:38;;;;;;;9.07;5.35;;;;;;;18.81;42.42;102120.28;5061920;28;20048;-70
2022/05/08 03:52:06;;;;;;;7.55;4.78;;;;;;;18.80;42.58;102111.16;5065526;28;20057;-69
2022/05/08 03:54:33;;;;;;;6.63;4.75;;;;;;;18.80;42.32;102113.91;5075961;28;20056;-69
2022/05/08 03:56:59;;;;;;;8.18;5.05;;;;;;;18.80;42.16;102116.66;5060048;28;20468;-70
2022/05/08 03:59:26;;;;;;;8.88;5.35;;;;;;;18.80;41.93;102124.03;5078998;28;20502;-70
2022/05/08 04:01:54;;;;;;;7.88;5.28;;;;;;;18.79;42.31;102114.03;5063086;28;20048;-69
2022/05/08 04:04:21;;;;;;;9.38;5.97;;;;;;;18.76;42.58;102120.69;5082702;28;20490;-70
2022/05/08 04:06:48;;;;;;;7.78;5.63;;;;;;;18.77;42.39;102122.44;5065132;28;20056;-70
2022/05/08 04:09:18;;;;;;;9.52;5.95;;;;;;;18.77;42.52;102118.81;5058714;28;20109;-70
2022/05/08 04:11:44;;;;;;;9.02;6.47;;;;;;;18.72;42.14;102121.91;5064581;28;20090;-70
2022/05/08 04:14:12;;;;;;;10.18;6.10;;;;;;;18.72;42.07;102127.41;5059624;28;20110;-70
2022/05/08 04:16:39;;;;;;;8.05;5.13;;;;;;;18.70;42.48;102123.91;5068497;28;20062;-70
2022/05/08 04:19:07;;;;;;;9.73;6.72;;;;;;;18.67;42.34;102131.56;5059796;28;20733;-70
2022/05/08 04:21:34;;;;;;;8.50;6.35;;;;;;;18.65;42.05;102137.16;5063847;28;20053;-70
2022/05/08 04:24:19;;;;;;;11.00;7.03;;;;;;;18.63;42.12;102137.28;5054752;28;20048;-69
2022/05/08 04:26:46;;;;;;;8.85;6.50;;;;;;;18.59;42.47;102144.06;5061346;28;20049;-70
2022/05/08 04:29:13;;;;;;;9.93;7.03;;;;;;;18.57;42.03;102143.28;5087283;28;20490;-70
2022/05/08 04:31:40;;;;;;;9.35;6.85;;;;;;;18.55;42.30;102142.50;5070567;28;20053;-70
2022/05/08 04:34:06;;;;;;;10.13;6.93;;;;;;;18.53;42.53;102141.72;5063003;28;20056;-70
2022/05/08 04:36:33;;;;;;;10.85;7.72;;;;;;;18.47;42.35;102144.09;5060839;28;20567;-71
2022/05/08 04:39:00;;;;;;;10.75;7.55;;;;;;;18.48;41.96;102148.59;5072745;28;20044;-70
2022/05/08 04:41:27;;;;;;;11.88;8.00;;;;;;;18.44;42.31;102147.13;5057235;28;20060;-70
2022/05/08 04:43:59;;;;;;;10.52;8.00;;;;;;;18.40;42.06;102153.84;5079234;28;20060;-70
2022/05/08 04:46:27;;;;;;;11.98;7.88;;;;;;;18.34;42.37;102159.84;5072551;28;20056;-70
2022/05/08 04:48:54;;;;;;;11.05;8.40;;;;;;;18.30;42.31;102161.94;5066745;28;20117;-70
2022/05/08 04:51:20;;;;;;;11.82;8.80;;;;;;;18.26;41.97;102160.44;5085228;28;20576;-70
2022/05/08 04:53:47;;;;;;;13.23;9.38;;;;;;;18.21;42.25;102162.66;5065561;28;20103;-70
2022/05/08 04:56:14;;;;;;;14.02;9.52;;;;;;;18.17;42.52;102156.53;5082578;28;20342;-70
2022/05/08 04:58:41;;;;;;;14.15;9.50;;;;;;;18.14;42.26;102159.50;5065872;28;20360;-70
2022/05/08 05:01:08;;;;;;;12.18;9.50;;;;;;;18.11;42.43;102165.28;5054173;28;20139;-70
2022/05/08 05:03:34;;;;;;;14.93;9.20;;;;;;;18.09;42.37;102163.63;5053590;28;20101;-70
2022/05/08 05:06:01;;;;;;;14.95;9.82;;;;;;;18.07;42.22;102165.59;5082235;28;20110;-70
2022/05/08 05:08:28;;;;;;;13.50;9.55;;;;;;;18.03;42.39;102162.25;5064989;28;20049;-69
2022/05/08 05:10:55;;;;;;;14.52;10.40;;;;;;;18.00;42.12;102167.09;5062927;28;20063;-70
2022/05/08 05:13:21;;;;;;;12.75;9.48;;;;;;;17.97;42.43;102168.19;5063441;28;20063;-69
2022/05/08 05:15:48;;;;;;;12.93;9.27;;;;;;;17.94;42.17;102179.44;5062051;28;20449;-70
2022/05/08 05:18:15;;;;;;;12.93;9.05;;;;;;;17.94;42.29;102179.44;5074907;28;20055;-70
2022/05/08 05:20:41;;;;;;;12.30;9.10;;;;;;;17.91;42.35;102190.66;5070581;28;20083;-70
2022/05/08 05:23:08;;;;;;;14.00;9.13;;;;;;;17.91;42.71;102190.66;5069244;28;20456;-69
2022/05/08 05:25:35;;;;;;;13.07;8.57;;;;;;;17.93;42.37;102196.03;5062246;28;20560;-69
2022/05/08 05:28:01;;;;;;;13.48;8.48;;;;;;;17.93;42.23;102196.91;5062916;28;20049;-69
2022/05/08 05:30:34;;;;;;;15.60;9.27;;;;;;;17.89;42.26;102192.63;5080240;28;20135;-69
2022/05/08 05:33:01;;;;;;;14.85;9.85;;;;;;;17.92;42.71;102191.53;5067317;28;20522;-69
2022/05/08 05:35:28;;;;;;;17.92;9.80;;;;;;;17.93;42.21;102198.78;5062010;28;20066;-69
2022/05/08 05:37:54;;;;;;;15.13;9.40;;;;;;;17.93;42.43;102193.28;5052774;28;20052;-69
2022/05/08 05:40:21;;;;;;;14.20;8.80;;;;;;;17.93;42.47;102201.53;5084788;28;20048;-69
2022/05/08 05:42:47;;;;;;;10.95;7.43;;;;;;;17.93;42.40;102202.41;5068498;28;20071;-69
2022/05/08 05:45:14;;;;;;;11.55;7.40;;;;;;;17.95;42.12;102202.31;5085323;28;20094;-69
2022/05/08 05:47:50;;;;;;;11.88;6.57;;;;;;;17.94;41.91;102203.28;5060169;28;20098;-69
2022/05/08 05:50:18;;;;;;;9.07;6.57;;;;;;;17.95;42.00;102207.78;5083862;28;20056;-70
2022/05/08 05:52:45;;;;;;;11.32;6.43;;;;;;;17.96;41.88;102212.28;5051144;28;20456;-69
2022/05/08 05:55:12;;;;;;;8.48;6.20;;;;;;;17.94;41.35;102208.78;5085546;28;20048;-70
2022/05/08 05:57:39;;;;;;;9.10;5.68;;;;;;;17.96;41.72;102215.91;5051688;28;20056;-69
2022/05/08 06:00:09;;;;;;;8.05;5.40;;;;;;;17.97;40.99;102217.66;5066079;28;20101;-70
2022/05/08 06:02:37;;;;;;;9.13;4.82;;;;;;;17.96;40.92;102223.25;5084313;28;20126;-69
2022/05/08 06:05:06;;;;;;;10.88;5.35;;;;;;;17.95;41.14;102222.41;5065098;28;20090;-69
2022/05/08 06:07:34;;;;;;;9.90;5.68;;;;;;;17.96;41.23;102226.00;5055709;28;20052;-69
2022/05/08 06:10:02;;;;;;;9.02;5.18;;;;;;;17.96;41.08;102218.66;5074958;28;20048;-70
2022/05/08 06:12:30;;;;;;;9.77;4.97;;;;;;;17.97;41.25;102216.78;5054580;28;20050;-70
2022/05/08 06:14:57;;;;;;;9.50;4.95;;;;;;;17.98;40.97;102218.53;5078997;28;20048;-70
2022/05/08 06:17:24;;;;;;;8.30;4.40;;;;;;;18.02;40.68;102228.31;5068294;28;20048;-68
2022/05/08 06:19:50;;;;;;;8.60;4.60;;;;;;;18.03;40.91;102230.06;5064742;28;20509;-69
2022/05/08 06:22:17;;;;;;;7.15;3.97;;;;;;;18.05;41.33;102231.69;5059685;28;20044;-68
2022/05/08 06:24:44;;;;;;;8.25;4.28;;;;;;;18.07;41.26;102237.06;5064074;28;20459;-68
2022/05/08 06:27:11;;;;;;;8.45;4.00;;;;;;;18.10;41.44;102239.59;5053860;28;21327;-68
2022/05/08 06:29:37;;;;;;;9.32;4.28;;;;;;;18.13;41.02;102234.72;5061411;28;20053;-68
2022/05/08 06:32:04;;;;;;;11.45;4.20;;;;;;;18.16;41.20;102241.88;5073762;28;20052;-70
2022/05/08 06:34:31;;;;;;;8.60;3.97;;;;;;;18.20;40.85;102238.75;5081257;28;20098;-70
2022/05/08 06:36:58;;;;;;;8.55;4.13;;;;;;;18.25;40.88;102246.66;5060500;28;20056;-70
2022/05/08 06:39:26;;;;;;;10.88;3.92;;;;;;;18.28;40.77;102249.19;5063545;28;20098;-69
2022/05/08 06:41:52;;;;;;;7.35;3.80;;;;;;;18.31;40.24;102256.28;5069138;28;20052;-69
2022/05/08 06:44:19;;;;;;;9.48;4.28;;;;;;;18.32;40.22;102253.44;5070293;28;20095;-70
2022/05/08 06:46:46;;;;;;;8.07;3.58;;;;;;;18.33;40.21;102257.06;5070950;28;20053;-69
2022/05/08 06:49:12;;;;;;;7.03;3.35;;;;;;;18.35;40.04;102253.22;5071252;28;20106;-69
2022/05/08 06:51:39;;;;;;;7.95;3.60;;;;;;;18.35;40.45;102255.97;5052224;28;20048;-69
2022/05/08 06:54:05;;;;;;;7.05;3.13;;;;;;;18.39;40.28;102256.59;5069327;28;20094;-68
2022/05/08 06:56:35;;;;;;;8.82;3.90;;;;;;;18.40;40.30;102261.97;5068789;28;20045;-69
2022/05/08 07:01:50;;;;;;;10.45;3.92;;;;;;;18.48;40.35;102266.88;5069484;28;20048;-68
2022/05/08 07:12:11;;;;;;;8.32;3.70;;;;;;;18.76;40.14;102268.38;5082923;27;20186;-74
2022/05/08 07:14:40;;;;;;;9.73;4.18;;;;;;;18.81;39.58;102268.88;5050529;28;20053;-74
2022/05/08 07:17:06;;;;;;;10.13;4.10;;;;;;;18.88;39.29;102279.28;5046640;28;20103;-74
2022/05/08 07:19:34;;;;;;;10.20;3.72;;;;;;;18.91;39.31;102280.94;5037951;28;20501;-74
2022/05/08 07:22:00;;;;;;;7.88;3.80;;;;;;;18.95;38.94;102274.16;5044012;28;20049;-73
2022/05/08 07:24:27;;;;;;;10.10;3.92;;;;;;;18.95;39.26;102271.41;5051624;28;20048;-74
2022/05/08 07:26:53;;;;;;;8.50;3.78;;;;;;;18.95;38.73;102268.66;5050620;28;20055;-74
2022/05/08 07:29:20;;;;;;;7.70;3.25;;;;;;;18.95;38.81;102279.66;5051238;28;20117;-74
2022/05/08 07:31:47;;;;;;;7.35;3.50;;;;;;;18.94;38.84;102280.69;5083277;28;20114;-73
2022/05/08 07:36:59;;;;;;;10.25;3.78;;;;;;;18.81;38.32;102280.78;5069522;28;20056;-73
2022/05/08 07:39:25;;;;;;;7.13;3.35;;;;;;;18.79;37.98;102288.25;5070927;28;20045;-74
2022/05/08 07:41:52;;;;;;;7.95;3.80;;;;;;;18.72;38.52;102289.75;5057378;28;20475;-74
2022/05/08 07:44:19;;;;;;;8.48;3.38;;;;;;;18.66;38.38;102286.59;5053473;28;20048;-75
2022/05/08 07:46:45;;;;;;;7.70;3.08;;;;;;;18.59;38.30;102288.97;5065972;28;20083;-74
2022/05/08 07:49:12;;;;;;;7.82;3.30;;;;;;;18.54;38.37;102297.53;5059978;28;20049;-74
2022/05/08 07:51:39;;;;;;;5.97;3.10;;;;;;;18.51;38.70;102294.16;5042522;28;20103;-74
2022/05/08 07:54:05;;;;;;;8.70;3.45;;;;;;;18.44;38.55;102299.25;5051960;28;20045;-74
2022/05/08 07:56:32;;;;;;;7.18;3.20;;;;;;;18.41;38.97;102304.97;5053700;28;20049;-74
2022/05/08 07:58:58;;;;;;;8.85;2.97;;;;;;;18.38;38.63;102307.06;5055278;28;20129;-74
2022/05/08 08:01:25;;;;;;;6.97;3.10;;;;;;;18.36;38.85;102301.72;5054028;28;20132;-74
2022/05/08 08:04:12;;;;;;;7.70;2.88;;;;;;;18.35;39.12;102304.56;5051100;28;20052;-74
2022/05/08 08:06:39;;;;;;;6.10;2.78;;;;;;;18.38;39.49;102310.69;5046154;28;20044;-73
2022/05/08 08:09:05;;;;;;;7.05;3.00;;;;;;;18.40;39.68;102308.72;5054724;28;20121;-75
2022/05/08 08:11:32;;;;;;;7.55;3.42;;;;;;;18.43;39.24;102315.88;5053472;28;20567;-74
2022/05/08 08:14:01;;;;;;;8.02;3.17;;;;;;;18.48;39.24;102320.00;5057409;28;20561;-74
2022/05/08 08:16:28;;;;;;;6.22;3.40;;;;;;;18.52;39.37;102318.78;5064427;28;20047;-74
2022/05/08 08:18:56;;;;;;;10.05;3.17;;;;;;;18.54;39.09;102316.78;5054759;28;20048;-74
2022/05/08 08:21:24;;;;;;;8.73;3.30;;;;;;;18.59;38.97;102324.72;5053700;28;20488;-74
2022/05/08 08:23:50;;;;;;;5.78;2.63;;;;;;;18.63;38.80;102323.47;5054542;28;20063;-74
2022/05/08 08:26:17;;;;;;;7.95;2.65;;;;;;;18.67;38.61;102322.25;5053772;28;20106;-74
2022/05/08 08:28:44;;;;;;;8.77;3.05;;;;;;;18.70;38.31;102322.00;5054354;28;20052;-74
2022/05/08 08:31:11;;;;;;;6.22;2.63;;;;;;;18.74;38.56;102317.16;5062122;28;20460;-73
2022/05/08 08:33:40;;;;;;;8.75;3.28;;;;;;;18.79;38.58;102325.91;5054488;28;20048;-74
2022/05/08 08:36:08;;;;;;;6.22;2.60;;;;;;;18.82;38.20;102320.19;5054278;28;20497;-74
2022/05/08 08:38:36;;;;;;;7.03;2.65;;;;;;;18.85;38.19;102328.19;5051273;28;20110;-73
2022/05/08 08:41:04;;;;;;;6.72;2.72;;;;;;;18.92;37.79;102321.22;5045988;28;20056;-74
2022/05/08 08:49:22;;;;;;;8.27;2.87;;;;;;;19.05;37.32;102321.09;5007653;28;20137;-73
2022/05/08 08:51:50;;;;;;;6.57;2.50;;;;;;;19.12;37.71;102320.50;5042593;28;20044;-73
2022/05/08 08:54:21;;;;;;;5.72;2.53;;;;;;;19.25;37.23;102325.91;5072443;28;20048;-73
2022/05/08 08:56:48;;;;;;;6.32;2.45;;;;;;;19.28;37.30;102323.78;5054000;28;20047;-73
2022/05/08 08:59:22;;;;;;;8.88;2.70;;;;;;;19.36;37.03;102314.91;5058288;28;20032;-72
2022/05/08 09:01:49;;;;;;;8.18;3.28;;;;;;;19.47;37.24;102322.28;5053286;28;20423;-73
2022/05/08 09:04:18;;;;;;;4.88;2.40;;;;;;;19.55;37.26;102328.97;5053303;28;20401;-73
2022/05/08 09:06:46;;;;;;;5.60;2.45;;;;;;;19.68;37.10;102326.97;5053446;28;20052;-73
2022/05/08 09:09:25;;;;;;;6.20;3.17;;;;;;;19.82;36.25;102331.34;5053725;28;20062;-74
2022/05/08 09:11:55;;;;;;;6.88;2.72;;;;;;;19.89;36.59;102327.09;5052226;28;20056;-75
2022/05/08 09:14:30;;;;;;;6.45;2.78;;;;;;;20.04;35.60;102325.81;5055979;28;20391;-74
2022/05/08 09:16:58;;;;;;;7.20;2.63;;;;;;;20.13;36.45;102330.56;5054860;28;20054;-74
2022/05/08 09:19:41;;;;;;;7.18;2.72;;;;;;;20.28;35.27;102335.78;5066020;28;20095;-74
2022/05/08 09:22:11;;;;;;;7.38;3.00;;;;;;;20.35;36.03;102328.75;5046515;28;20072;-74
2022/05/08 09:24:51;;;;;;;5.85;2.90;;;;;;;20.53;35.33;102335.47;5053448;28;20106;-74
2022/05/08 09:27:18;;;;;;;8.15;2.70;;;;;;;20.58;35.49;102330.47;5052419;28;20049;-74
2022/05/08 09:29:45;;;;;;;5.57;2.47;;;;;;;20.71;35.93;102327.50;5051461;28;20060;-74
2022/05/08 09:32:42;;;;;;;7.53;2.83;;;;;;;20.83;33.94;102329.22;5056254;28;20386;-74
2022/05/08 09:35:08;;;;;;;6.82;2.50;;;;;;;20.89;35.44;102325.91;5046006;28;20087;-73
2022/05/08 09:37:52;;;;;;;7.68;2.60;;;;;;;21.01;34.74;102323.94;5051745;28;20045;-73
2022/05/08 09:40:21;;;;;;;8.23;3.53;;;;;;;21.09;35.77;102326.91;5052979;28;20060;-74
2022/05/08 09:42:48;;;;;;;6.07;2.50;;;;;;;21.22;35.05;102322.13;5051419;28;20059;-74
2022/05/08 09:45:14;;;;;;;7.85;2.92;;;;;;;21.32;34.96;102322.19;5053007;28;20058;-74
2022/05/08 09:47:45;;;;;;;6.32;3.42;;;;;;;21.39;34.33;102323.38;5051818;28;20048;-75
2022/05/08 09:50:13;;;;;;;6.93;2.90;;;;;;;21.43;33.95;102320.19;5053324;28;20098;-74
2022/05/08 09:52:41;;;;;;;6.22;2.67;;;;;;;21.55;34.11;102319.09;5051576;28;20063;-74
2022/05/08 09:55:09;;;;;;;5.97;2.63;;;;;;;21.59;33.77;102326.09;5065350;28;20049;-74
2022/05/08 09:57:39;;;;;;;7.40;2.38;;;;;;;21.69;33.57;102316.97;5050281;28;20052;-74
2022/05/08 10:00:12;;;;;;;5.75;2.30;;;;;;;21.79;33.78;102317.88;5043165;28;20412;-74
2022/05/08 10:02:43;;;;;;;7.93;2.90;;;;;;;21.83;33.07;102311.91;5051577;28;20052;-74
2022/05/08 10:05:11;;;;;;;5.45;2.10;;;;;;;21.92;32.64;102319.38;5053131;28;20040;-74
2022/05/08 10:07:39;;;;;;;5.45;2.47;;;;;;;22.05;32.48;102321.94;5051727;28;20045;-74
2022/05/08 10:15:45;;;;;;;6.22;2.33;;;;;;;22.20;32.01;102308.56;5069774;28;20056;-74
2022/05/08 10:18:21;;;;;;;5.82;2.40;;;;;;;22.29;30.08;102313.25;5062692;28;20445;-74
2022/05/08 10:21:05;;;;;;;6.65;2.55;;;;;;;22.32;29.27;102307.41;5059097;28;20045;-74
2022/05/08 10:23:37;;;;;;;7.50;3.40;;;;;;;22.34;29.89;102311.78;5051756;28;20036;-74
2022/05/08 10:26:22;;;;;;;7.75;2.90;;;;;;;22.40;29.25;102316.75;5053006;28;20056;-74
2022/05/08 10:29:04;;;;;;;5.53;2.42;;;;;;;22.48;30.31;102312.41;5051713;28;20061;-74
2022/05/08 10:31:52;;;;;;;6.00;2.40;;;;;;;22.56;29.75;102312.56;5071814;28;20051;-74
2022/05/08 10:34:33;;;;;;;8.82;2.65;;;;;;;22.61;28.59;102311.09;5037622;28;20049;-74
2022/05/08 10:37:13;;;;;;;5.72;2.45;;;;;;;22.70;29.75;102303.81;5053756;28;20135;-74
2022/05/08 10:39:42;;;;;;;5.40;2.08;;;;;;;22.73;29.23;102311.84;5052285;28;20052;-74
2022/05/08 10:42:24;;;;;;;5.82;2.30;;;;;;;22.76;28.41;102306.03;5050773;28;20098;-74
2022/05/08 10:44:51;;;;;;;4.30;2.00;;;;;;;22.73;29.09;102298.84;5056448;28;20051;-74
2022/05/08 10:47:33;;;;;;;6.15;2.28;;;;;;;22.81;28.42;102297.28;5046982;28;20044;-75
2022/05/08 10:50:02;;;;;;;5.75;2.13;;;;;;;22.80;29.15;102296.41;5051402;28;20547;-75
2022/05/08 10:52:32;;;;;;;5.43;2.67;;;;;;;22.85;29.01;102299.59;5042931;28;20059;-74
2022/05/08 10:55:12;;;;;;;5.32;2.20;;;;;;;22.92;28.35;102300.75;5052908;28;20542;-74
2022/05/08 10:57:39;;;;;;;5.05;2.05;;;;;;;22.92;29.77;102303.53;5051763;28;20130;-75
2022/05/08 11:00:09;;;;;;;6.80;2.40;;;;;;;22.96;29.12;102301.34;5052992;28;20052;-75
2022/05/08 11:02:42;;;;;;;7.13;2.42;;;;;;;22.95;26.05;102292.16;5052865;28;20056;-75
2022/05/08 11:05:25;;;;;;;5.00;2.30;;;;;;;23.04;27.96;102295.94;5038754;28;20485;-75
2022/05/08 11:07:54;;;;;;;6.25;2.20;;;;;;;23.05;29.03;102303.22;5045915;28;20044;-75
2022/05/08 11:10:23;;;;;;;5.03;1.83;;;;;;;23.12;29.04;102293.28;5051424;28;20048;-75
2022/05/08 11:13:10;;;;;;;6.40;2.10;;;;;;;23.14;27.86;102294.03;5050175;28;20395;-75
2022/05/08 11:15:43;;;;;;;4.22;2.03;;;;;;;23.15;28.51;102298.53;5059767;28;20529;-75
2022/05/08 11:18:15;;;;;;;4.82;2.15;;;;;;;23.24;28.33;102283.78;5063577;28;20386;-75
2022/05/08 11:20:57;;;;;;;4.30;1.90;;;;;;;23.29;28.01;102292.53;5051087;28;20056;-75
2022/05/08 11:23:29;;;;;;;5.80;2.20;;;;;;;23.26;28.36;102278.97;5053804;28;20136;-75
2022/05/08 11:25:58;;;;;;;7.75;2.03;;;;;;;23.33;28.77;102282.00;5054185;28;20101;-74
2022/05/08 11:28:27;;;;;;;5.47;2.00;;;;;;;23.37;28.51;102284.31;5048955;28;20493;-75
2022/05/08 11:30:55;;;;;;;4.90;1.95;;;;;;;23.44;28.52;102288.25;5050771;28;20060;-75
2022/05/08 11:36:25;;;;;;;4.88;1.88;;;;;;;23.51;28.82;102281.09;5057783;28;20044;-75
2022/05/08 11:38:55;;;;;;;4.88;2.05;;;;;;;23.58;28.11;102275.81;5042803;28;20045;-74
2022/05/08 11:41:28;;;;;;;4.95;1.90;;;;;;;23.63;27.95;102272.59;5048433;28;20045;-75
2022/05/08 11:43:56;;;;;;;7.65;2.40;;;;;;;23.64;28.12;102277.09;5032085;28;20121;-74
2022/05/08 11:46:36;;;;;;;5.38;2.03;;;;;;;23.67;26.73;102274.00;5053413;28;20413;-75
2022/05/08 11:49:22;;;;;;;7.25;2.05;;;;;;;23.71;27.84;102275.47;5046795;28;20123;-75
2022/05/08 11:51:51;;;;;;;4.70;2.05;;;;;;;23.76;28.80;102270.31;5049968;28;20044;-75
2022/05/08 11:54:22;;;;;;;6.00;2.30;;;;;;;23.80;28.70;102269.84;5051693;28;20044;-75
2022/05/08 11:56:51;;;;;;;5.55;2.30;;;;;;;23.81;27.97;102262.41;5050554;28;20052;-75
2022/05/08 11:59:23;;;;;;;4.68;1.90;;;;;;;23.88;27.88;102263.56;5051464;28;20045;-75
2022/05/08 12:01:54;;;;;;;3.83;1.73;;;;;;;23.89;27.46;102262.50;5049926;28;20417;-75
2022/05/08 12:04:21;;;;;;;6.28;2.17;;;;;;;23.88;27.63;102258.00;5050913;28;20044;-75
2022/05/08 12:07:17;;;;;;;4.97;2.10;;;;;;;23.85;26.81;102259.19;5050333;28;20044;-75
2022/05/08 12:09:44;;;;;;;5.20;1.98;;;;;;;23.90;27.88;102259.56;5035965;28;20110;-74